Time;durP1;ratioP1;P1;durP2;ratioP2;P2;SDS_P1;SDS_P2;PMS_P1;PMS_P2;Temp;Humidity;BMP_temperature;BMP_pressure;BME280_temperature;BME280_humidity;BME280_pressure;Samples;Min_cycle;Max_cycle;Signal;HPM_P1;HPM_P2
2022/02/19 00:01:12;;;;;;;80.43;37.28;;;;;;;8.91;37.28;95221.75;4973858;28;20202;-69
2022/02/19 00:03:39;;;;;;;71.60;34.35;;;;;;;9.03;37.16;95232.13;4972228;28;20210;-68
2022/02/19 00:06:05;;;;;;;78.32;35.83;;;;;;;8.92;37.57;95233.00;4955789;28;20210;-68
2022/02/19 00:08:34;;;;;;;72.55;36.05;;;;;;;8.58;38.12;95239.97;4972825;28;20215;-69
2022/02/19 00:11:01;;;;;;;88.53;38.58;;;;;;;8.45;38.31;95240.25;4973450;28;20224;-69
2022/02/19 00:13:28;;;;;;;72.45;34.17;;;;;;;8.80;37.34;95238.28;4972590;28;20718;-69
2022/02/19 00:15:55;;;;;;;76.45;35.85;;;;;;;9.02;37.63;95241.78;4973201;28;20191;-70
2022/02/19 00:18:22;;;;;;;78.38;36.20;;;;;;;8.99;37.62;95257.16;4972999;28;20674;-66
2022/02/19 00:20:53;;;;;;;85.47;39.90;;;;;;;8.82;37.56;95267.56;4972550;28;20211;-67
2022/02/19 00:23:21;;;;;;;79.53;39.10;;;;;;;8.72;37.37;95267.38;4972876;28;20743;-67
2022/02/19 00:25:47;;;;;;;83.60;37.83;;;;;;;8.92;37.44;95265.13;4972239;28;20231;-69
2022/02/19 00:28:15;;;;;;;84.35;40.33;;;;;;;9.08;36.35;95266.97;4972880;28;20191;-69
2022/02/19 00:30:43;;;;;;;85.05;41.55;;;;;;;8.76;37.58;95258.06;4972435;28;20278;-69
2022/02/19 00:33:09;;;;;;;89.85;42.78;;;;;;;8.68;37.68;95271.50;4972890;28;20183;-68
2022/02/19 00:35:37;;;;;;;83.65;38.78;;;;;;;8.31;38.30;95270.28;4972005;28;20219;-71
2022/02/19 00:38:05;;;;;;;85.03;39.50;;;;;;;8.19;38.82;95272.88;4972615;28;20195;-69
2022/02/19 00:40:32;;;;;;;82.95;39.92;;;;;;;8.15;39.00;95276.19;4972443;28;20262;-69
2022/02/19 00:43:00;;;;;;;77.88;36.13;;;;;;;7.83;39.40;95272.38;4972781;28;20266;-68
2022/02/19 00:45:27;;;;;;;87.72;40.10;;;;;;;6.06;43.07;95279.44;4971885;28;20235;-69
2022/02/19 00:47:55;;;;;;;76.05;33.35;;;;;;;6.82;41.72;95284.88;4972656;28;20207;-67
2022/02/19 00:50:22;;;;;;;65.30;31.95;;;;;;;7.34;40.41;95288.47;4954799;28;20199;-69
2022/02/19 00:52:49;;;;;;;61.60;31.27;;;;;;;7.28;40.58;95276.38;4972674;28;20207;-66
2022/02/19 00:55:16;;;;;;;69.38;31.92;;;;;;;7.04;40.80;95255.47;4954214;28;20670;-67
2022/02/19 00:57:43;;;;;;;67.22;30.08;;;;;;;7.81;39.11;95258.78;4972882;28;20567;-68
2022/02/19 01:00:14;;;;;;;60.60;26.83;;;;;;;8.13;38.55;95259.97;4939151;28;20321;-68
2022/02/19 01:03:04;;;;;;;52.55;24.25;;;;;;;8.11;38.29;95260.22;4952256;28;20661;-68
2022/02/19 01:05:31;;;;;;;53.85;26.08;;;;;;;7.66;39.98;95251.44;4953763;28;20226;-69
2022/02/19 01:07:58;;;;;;;53.90;25.20;;;;;;;7.99;39.31;95248.97;4972205;28;20206;-68
2022/02/19 01:10:25;;;;;;;51.03;24.50;;;;;;;7.51;40.06;95242.47;4954412;28;20199;-68
2022/02/19 01:12:52;;;;;;;47.95;24.08;;;;;;;7.54;39.87;95247.22;4954895;28;20202;-68
2022/02/19 01:15:19;;;;;;;38.63;17.80;;;;;;;7.07;40.92;95247.22;4954203;28;20199;-67
2022/02/19 01:17:46;;;;;;;35.88;16.80;;;;;;;7.52;40.30;95249.28;4972440;28;20199;-67
2022/02/19 01:20:13;;;;;;;36.58;17.25;;;;;;;7.89;39.01;95251.41;4972225;28;20291;-66
2022/02/19 01:22:42;;;;;;;36.15;17.30;;;;;;;8.21;38.45;95249.94;4973584;28;20195;-68
2022/02/19 01:25:10;;;;;;;32.83;15.93;;;;;;;8.39;38.49;95246.44;4954042;28;20216;-69
2022/02/19 01:27:42;;;;;;;40.78;17.50;;;;;;;8.44;38.24;95233.44;4954269;28;20227;-69
2022/02/19 01:30:09;;;;;;;35.00;16.83;;;;;;;8.54;37.43;95235.47;4953730;28;20273;-68
2022/02/19 01:32:44;;;;;;;30.27;15.70;;;;;;;8.36;37.71;95215.53;4954388;28;20203;-70
2022/02/19 01:35:12;;;;;;;33.92;17.92;;;;;;;8.51;38.40;95228.88;4953832;28;20199;-66
2022/02/19 01:37:40;;;;;;;36.17;16.38;;;;;;;8.38;38.08;95229.16;4954130;28;20206;-67
2022/02/19 01:40:08;;;;;;;36.70;17.63;;;;;;;8.40;38.41;95234.13;4953589;28;20285;-69
2022/02/19 01:42:39;;;;;;;35.40;15.95;;;;;;;8.32;38.50;95230.06;4953749;28;20195;-68
2022/02/19 01:45:11;;;;;;;39.70;17.45;;;;;;;8.58;38.13;95224.28;4953557;28;20631;-69
2022/02/19 01:47:39;;;;;;;37.00;17.23;;;;;;;8.46;38.43;95226.19;4953790;28;20265;-68
2022/02/19 01:50:08;;;;;;;36.63;16.77;;;;;;;8.64;38.33;95227.78;4953697;28;20203;-67
2022/02/19 01:52:38;;;;;;;32.17;16.50;;;;;;;8.44;38.64;95232.66;4955518;28;20314;-68
2022/02/19 01:55:10;;;;;;;37.65;17.17;;;;;;;8.23;39.43;95226.22;4970915;28;20213;-67
2022/02/19 01:57:48;;;;;;;41.65;18.38;;;;;;;8.05;39.28;95213.34;4971205;28;20223;-69
2022/02/19 02:00:38;;;;;;;33.50;16.23;;;;;;;8.10;39.04;95218.69;4969337;28;20608;-68
2022/02/19 02:03:25;;;;;;;34.83;17.17;;;;;;;7.99;39.42;95216.91;4950037;28;20211;-66
2022/02/19 02:05:54;;;;;;;39.78;18.25;;;;;;;7.91;39.52;95227.69;4954962;28;20203;-69
2022/02/19 02:08:21;;;;;;;45.53;20.77;;;;;;;7.78;40.07;95222.72;4955642;28;20633;-68
2022/02/19 02:10:48;;;;;;;59.15;27.08;;;;;;;7.84;39.77;95227.03;4973417;28;20207;-68
2022/02/19 02:13:35;;;;;;;74.03;31.17;;;;;;;7.63;39.40;95206.75;4971730;28;20604;-69
2022/02/19 02:16:03;;;;;;;69.30;30.58;;;;;;;8.03;39.62;95225.81;4955007;28;20290;-67
2022/02/19 02:19:02;;;;;;;66.70;31.90;;;;;;;7.92;39.72;95229.25;4963541;28;20294;-69
2022/02/19 02:21:29;;;;;;;57.95;29.00;;;;;;;7.81;39.90;95227.50;4970946;28;20195;-67
2022/02/19 02:23:56;;;;;;;70.68;32.50;;;;;;;7.87;39.93;95224.75;4953489;28;20195;-69
2022/02/19 02:26:24;;;;;;;60.78;29.92;;;;;;;8.06;39.63;95220.94;4970735;28;20195;-68
2022/02/19 02:28:52;;;;;;;62.70;30.05;;;;;;;8.34;39.09;95220.19;4952936;28;20262;-71
2022/02/19 02:31:19;;;;;;;68.10;31.88;;;;;;;7.89;39.60;95225.31;4953254;28;20673;-69
2022/02/19 02:33:47;;;;;;;72.85;33.17;;;;;;;8.04;40.24;95240.47;4952701;28;20207;-67
2022/02/19 02:36:16;;;;;;;80.90;38.65;;;;;;;7.97;40.08;95237.22;4970386;28;20727;-68
2022/02/19 02:38:53;;;;;;;103.70;48.97;;;;;;;7.96;40.23;95235.59;4952912;28;20269;-68
2022/02/19 02:41:23;;;;;;;108.47;49.78;;;;;;;8.01;40.02;95231.28;4953513;28;20234;-67
2022/02/19 02:43:52;;;;;;;110.53;51.55;;;;;;;8.00;39.52;95236.75;4952434;28;20223;-68
2022/02/19 02:46:19;;;;;;;105.03;48.53;;;;;;;7.92;40.23;95229.25;4953125;28;20234;-66
2022/02/19 02:48:46;;;;;;;107.95;46.42;;;;;;;7.96;39.96;95235.59;4951788;28;20804;-68
2022/02/19 02:51:14;;;;;;;95.47;43.83;;;;;;;7.79;40.66;95234.75;4972357;28;20289;-68
2022/02/19 02:53:48;;;;;;;98.18;42.45;;;;;;;7.57;40.51;95236.34;4972284;28;20210;-68
2022/02/19 02:56:16;;;;;;;89.00;41.15;;;;;;;7.59;40.49;95239.53;4973139;28;20209;-67
2022/02/19 02:58:43;;;;;;;84.40;38.38;;;;;;;7.56;40.76;95239.97;4972046;28;20214;-66
2022/02/19 03:01:11;;;;;;;73.30;35.10;;;;;;;7.16;40.83;95251.09;4977423;28;20284;-69
2022/02/19 03:03:41;;;;;;;75.65;37.28;;;;;;;6.94;41.59;95237.00;4978551;28;20200;-68
2022/02/19 03:06:11;;;;;;;74.18;36.15;;;;;;;7.09;41.33;95245.19;4979342;28;20276;-67
2022/02/19 03:08:41;;;;;;;81.40;37.17;;;;;;;7.25;41.24;95248.13;4996669;28;20264;-67
2022/02/19 03:11:07;;;;;;;79.38;36.70;;;;;;;7.29;40.73;95238.84;4982245;28;20218;-68
2022/02/19 03:13:38;;;;;;;79.55;36.08;;;;;;;7.47;41.05;95228.31;4938600;29;20291;-67
2022/02/19 03:16:07;;;;;;;74.30;33.35;;;;;;;7.42;40.87;95228.19;4936287;29;20207;-68
2022/02/19 03:18:36;;;;;;;76.20;33.80;;;;;;;7.21;41.24;95247.03;4937195;28;20587;-68
2022/02/19 03:21:03;;;;;;;79.05;35.58;;;;;;;7.02;40.86;95218.47;4949232;29;20285;-67
2022/02/19 03:23:32;;;;;;;62.75;31.85;;;;;;;6.85;41.63;95243.56;4935580;29;20204;-67
2022/02/19 03:26:00;;;;;;;64.93;32.33;;;;;;;6.63;41.86;95250.28;4936586;29;20671;-67
2022/02/19 03:28:28;;;;;;;68.93;31.42;;;;;;;6.50;42.07;95250.47;4952412;28;20204;-67
2022/02/19 03:30:56;;;;;;;69.85;29.70;;;;;;;6.61;41.49;95231.50;4936762;29;20328;-68
2022/02/19 03:33:44;;;;;;;69.60;30.60;;;;;;;6.66;41.81;95251.66;4937348;29;20216;-66
2022/02/19 03:36:14;;;;;;;64.68;30.25;;;;;;;6.78;41.27;95248.09;4936730;29;20204;-68
2022/02/19 03:38:41;;;;;;;60.85;29.02;;;;;;;6.72;41.92;95246.34;4959038;28;20200;-66
2022/02/19 03:41:16;;;;;;;58.35;28.85;;;;;;;6.94;41.25;95244.81;4955565;29;20246;-68
2022/02/19 03:43:44;;;;;;;61.65;27.65;;;;;;;6.86;41.23;95245.13;4955172;29;20207;-69
2022/02/19 03:46:12;;;;;;;54.58;26.50;;;;;;;6.88;41.26;95250.13;4955569;28;20208;-68
2022/02/19 03:48:48;;;;;;;54.97;28.17;;;;;;;6.57;41.37;95250.41;4957233;28;20666;-67
2022/02/19 03:51:18;;;;;;;59.72;27.58;;;;;;;6.93;41.67;95252.88;4954485;29;20207;-69
2022/02/19 03:53:46;;;;;;;57.95;26.45;;;;;;;6.88;41.52;95256.13;4954614;29;20196;-67
2022/02/19 03:56:18;;;;;;;51.20;24.65;;;;;;;6.54;42.29;95251.63;4955815;29;20200;-67
2022/02/19 03:58:47;;;;;;;51.80;25.80;;;;;;;6.43;42.82;95260.19;4954818;28;20270;-68
2022/02/19 04:01:15;;;;;;;59.83;25.92;;;;;;;6.76;42.30;95244.91;4956892;29;20267;-66
2022/02/19 04:03:44;;;;;;;51.10;25.23;;;;;;;6.85;42.33;95261.00;4939000;29;20203;-69
2022/02/19 04:06:12;;;;;;;54.15;25.23;;;;;;;5.95;44.10;95267.16;4955183;28;20216;-68
2022/02/19 04:08:39;;;;;;;52.20;25.35;;;;;;;5.95;44.10;95261.97;4951797;29;20228;-67
2022/02/19 04:11:06;;;;;;;51.78;24.50;;;;;;;6.13;43.58;95248.97;4937375;29;20232;-66
2022/02/19 04:13:34;;;;;;;50.63;27.00;;;;;;;5.72;44.54;95254.00;4931074;29;20323;-67
2022/02/19 04:16:13;;;;;;;47.22;22.67;;;;;;;5.81;44.83;95252.72;4932274;29;20230;-66
2022/02/19 04:18:47;;;;;;;48.25;21.75;;;;;;;6.17;43.81;95247.50;4948629;29;20223;-66
2022/02/19 04:21:16;;;;;;;42.97;21.35;;;;;;;6.40;43.14;95239.81;4933076;29;20280;-67
2022/02/19 04:23:43;;;;;;;39.72;20.13;;;;;;;5.11;46.40;95249.59;4938341;29;20196;-68
2022/02/19 04:26:11;;;;;;;43.22;20.88;;;;;;;6.20;43.53;95244.47;4951777;29;20239;-68
2022/02/19 04:29:04;;;;;;;42.72;22.58;;;;;;;6.60;42.72;95239.53;4950225;28;20709;-67
2022/02/19 04:31:45;;;;;;;44.20;21.95;;;;;;;6.50;42.59;95224.44;4952133;29;20235;-66
2022/02/19 04:34:19;;;;;;;45.13;22.27;;;;;;;6.49;42.58;95228.06;4951957;29;20242;-68
2022/02/19 04:36:49;;;;;;;42.00;21.50;;;;;;;6.56;42.22;95217.56;4952803;29;20200;-69
2022/02/19 04:39:19;;;;;;;47.13;22.38;;;;;;;6.87;42.29;95236.31;4951515;29;20203;-68
2022/02/19 04:41:46;;;;;;;48.58;22.08;;;;;;;6.84;42.36;95247.16;4951507;29;20223;-67
2022/02/19 04:44:17;;;;;;;47.67;23.83;;;;;;;6.74;42.23;95241.72;4952244;29;20211;-68
2022/02/19 04:46:45;;;;;;;46.30;23.75;;;;;;;6.78;42.41;95242.06;4952121;29;20254;-67
2022/02/19 04:49:12;;;;;;;51.33;23.85;;;;;;;6.76;42.54;95242.28;4951886;29;20199;-68
2022/02/19 04:51:39;;;;;;;50.90;24.67;;;;;;;6.78;42.14;95237.66;4952355;29;20198;-66
2022/02/19 04:54:06;;;;;;;53.35;25.05;;;;;;;6.65;42.63;95248.25;4951486;29;20199;-66
2022/02/19 04:56:34;;;;;;;51.08;25.77;;;;;;;6.56;43.06;95239.19;4951555;29;20211;-68
2022/02/19 04:59:06;;;;;;;49.80;25.70;;;;;;;6.22;43.94;95237.25;4951954;29;20200;-68
2022/02/19 05:01:40;;;;;;;53.17;27.25;;;;;;;6.42;43.60;95258.59;4948063;29;20326;-66
2022/02/19 05:04:12;;;;;;;68.60;32.05;;;;;;;6.22;43.81;95260.66;4932197;29;20236;-68
2022/02/19 05:06:51;;;;;;;81.45;39.28;;;;;;;5.98;44.12;95259.75;4932759;29;20272;-68
2022/02/19 05:09:19;;;;;;;93.55;46.85;;;;;;;6.21;43.75;95256.47;4915861;29;20909;-66
2022/02/19 05:11:55;;;;;;;91.50;46.85;;;;;;;6.47;43.72;95261.34;4932188;29;20204;-67
2022/02/19 05:14:22;;;;;;;89.60;45.05;;;;;;;6.15;43.51;95259.94;4931465;29;20233;-67
2022/02/19 05:16:53;;;;;;;70.90;38.92;;;;;;;6.22;43.42;95272.88;4932560;29;20232;-67
2022/02/19 05:19:29;;;;;;;69.88;35.58;;;;;;;6.47;43.24;95271.75;4932697;29;20295;-66
2022/02/19 05:21:56;;;;;;;66.18;33.15;;;;;;;6.64;42.51;95269.31;4948280;29;20264;-66
2022/02/19 05:24:25;;;;;;;74.40;38.40;;;;;;;6.59;42.42;95263.97;4931434;29;20694;-67
2022/02/19 05:27:02;;;;;;;71.43;36.80;;;;;;;6.21;43.21;95279.88;4932274;29;20646;-69
2022/02/19 05:29:29;;;;;;;70.03;37.15;;;;;;;5.95;43.74;95267.16;4947579;29;20647;-67
2022/02/19 05:31:56;;;;;;;80.03;40.67;;;;;;;5.82;43.76;95272.50;4942545;29;20204;-67
2022/02/19 05:34:35;;;;;;;80.53;40.13;;;;;;;5.96;43.39;95268.78;4952802;29;20567;-69
2022/02/19 05:37:04;;;;;;;66.70;36.15;;;;;;;5.98;43.77;95274.56;4951178;29;20204;-65
2022/02/19 05:39:39;;;;;;;66.28;34.72;;;;;;;5.51;44.49;95262.22;4950473;29;20765;-69
2022/02/19 05:42:10;;;;;;;65.45;33.00;;;;;;;5.79;44.05;95267.72;4950993;29;20238;-68
2022/02/19 05:44:38;;;;;;;64.63;32.83;;;;;;;5.84;44.11;95254.88;4949894;29;20235;-67
2022/02/19 05:47:08;;;;;;;65.25;32.45;;;;;;;6.13;43.64;95256.78;4967067;28;20199;-67
2022/02/19 05:49:41;;;;;;;62.70;32.88;;;;;;;6.33;42.83;95252.13;4950101;29;20712;-67
2022/02/19 05:52:22;;;;;;;64.53;35.50;;;;;;;6.28;43.16;95248.59;4950068;29;20212;-69
2022/02/19 05:55:08;;;;;;;64.00;35.30;;;;;;;6.17;43.39;95239.69;4951646;29;20275;-66
2022/02/19 05:57:42;;;;;;;63.13;35.78;;;;;;;6.56;42.89;95247.00;4951004;29;20630;-68
2022/02/19 06:00:10;;;;;;;63.47;35.22;;;;;;;6.54;43.36;95254.22;4950609;29;20271;-66
2022/02/19 06:02:42;;;;;;;62.67;34.15;;;;;;;6.45;43.42;95252.94;4951512;28;20658;-69
2022/02/19 06:05:11;;;;;;;58.65;33.15;;;;;;;6.23;43.26;95248.44;4949920;29;20202;-67
2022/02/19 06:07:44;;;;;;;51.17;26.13;;;;;;;6.52;42.74;95237.22;4949492;29;20214;-68
2022/02/19 06:10:11;;;;;;;54.83;26.25;;;;;;;6.51;43.17;95244.25;4950670;29;20203;-67
2022/02/19 06:12:39;;;;;;;46.65;24.33;;;;;;;6.53;42.52;95239.59;4949442;29;20679;-69
2022/02/19 06:15:12;;;;;;;48.58;24.52;;;;;;;6.86;42.52;95234.72;4949840;28;20239;-68
2022/02/19 06:18:03;;;;;;;43.83;24.45;;;;;;;7.03;42.13;95246.09;4951663;29;20638;-68
2022/02/19 06:20:34;;;;;;;49.15;23.73;;;;;;;6.99;41.93;95262.38;4949882;29;20243;-67
2022/02/19 06:23:03;;;;;;;43.25;22.88;;;;;;;6.95;42.32;95272.44;4950226;29;20258;-67
2022/02/19 06:25:31;;;;;;;48.20;21.52;;;;;;;7.14;42.36;95283.59;4950372;29;20207;-67
2022/02/19 06:28:02;;;;;;;43.33;20.35;;;;;;;7.12;41.74;95265.56;4951747;28;20741;-68
2022/02/19 06:30:29;;;;;;;37.28;18.05;;;;;;;7.28;41.75;95286.78;4949556;29;20726;-70
2022/02/19 06:33:03;;;;;;;33.63;17.02;;;;;;;7.08;41.69;95269.66;4949884;29;20225;-68
2022/02/19 06:35:31;;;;;;;35.08;17.33;;;;;;;7.62;41.32;95305.06;4948851;28;20208;-68
2022/02/19 06:38:10;;;;;;;24.77;13.32;;;;;;;7.14;41.73;95296.63;4949252;29;20203;-68
2022/02/19 06:40:38;;;;;;;24.73;12.68;;;;;;;7.63;41.50;95298.00;4951487;28;20595;-68
2022/02/19 06:43:08;;;;;;;24.75;12.40;;;;;;;7.47;41.24;95303.91;4949753;29;20635;-67
2022/02/19 06:45:35;;;;;;;21.27;11.40;;;;;;;7.77;40.83;95304.63;4949690;29;20207;-68
2022/02/19 06:48:02;;;;;;;23.90;11.02;;;;;;;8.13;40.26;95320.81;4948619;29;20795;-69
2022/02/19 06:50:32;;;;;;;25.02;11.93;;;;;;;8.53;39.77;95326.06;4949677;29;20204;-68
2022/02/19 06:53:03;;;;;;;22.00;10.93;;;;;;;8.69;39.75;95317.50;4949449;29;20292;-70
2022/02/19 06:55:30;;;;;;;21.55;10.82;;;;;;;8.66;38.88;95311.94;4948805;29;20624;-67
2022/02/19 06:57:58;;;;;;;18.20;10.25;;;;;;;8.74;39.02;95309.75;4949060;29;20243;-69
2022/02/19 07:00:29;;;;;;;24.23;12.70;;;;;;;8.80;42.50;95310.63;4949863;29;20286;-69
2022/02/19 07:03:00;;;;;;;24.58;12.15;;;;;;;8.93;40.68;95305.94;4950692;29;20191;-67
2022/02/19 07:05:31;;;;;;;30.52;14.48;;;;;;;8.66;39.83;95310.13;4948738;29;20200;-68
2022/02/19 07:08:30;;;;;;;34.80;16.20;;;;;;;8.64;42.66;95312.19;4922973;29;20350;-72
2022/02/19 07:10:57;;;;;;;32.03;16.27;;;;;;;8.98;40.90;95310.44;4934321;29;20208;-69
2022/02/19 07:13:25;;;;;;;29.45;13.05;;;;;;;8.92;39.31;95299.09;4948403;28;20267;-66
2022/02/19 07:15:53;;;;;;;26.50;12.75;;;;;;;9.19;38.45;95299.31;4949834;29;20710;-68
2022/02/19 07:18:40;;;;;;;17.10;9.10;;;;;;;9.02;38.93;95296.69;4949245;29;20442;-69
2022/02/19 07:21:14;;;;;;;20.83;10.20;;;;;;;9.33;38.61;95295.34;4949933;29;20231;-70
2022/02/19 07:23:41;;;;;;;27.13;11.10;;;;;;;9.58;38.04;95287.88;4948494;28;20199;-66
2022/02/19 07:26:10;;;;;;;30.08;12.63;;;;;;;9.63;37.85;95284.56;4949957;29;20214;-69
2022/02/19 07:28:39;;;;;;;16.90;8.10;;;;;;;9.63;37.37;95284.56;4948932;29;20206;-69
2022/02/19 07:31:08;;;;;;;20.02;9.32;;;;;;;9.83;38.07;95249.00;4950282;29;20192;-70
2022/02/19 07:33:36;;;;;;;16.90;8.75;;;;;;;9.85;41.15;95288.03;4948922;28;20298;-70
2022/02/19 07:36:10;;;;;;;22.08;8.57;;;;;;;9.36;39.06;95273.16;4949010;29;20202;-68
2022/02/19 07:38:38;;;;;;;19.67;8.25;;;;;;;9.44;39.18;95276.16;4947796;29;20898;-69
2022/02/19 07:41:05;;;;;;;20.35;8.13;;;;;;;10.54;37.82;95283.94;4950764;28;20263;-69
2022/02/19 07:43:52;;;;;;;41.72;22.30;;;;;;;10.23;38.16;95272.31;4933325;29;20299;-68
2022/02/19 07:46:42;;;;;;;18.02;8.73;;;;;;;10.76;39.38;95272.41;4911876;29;20653;-68
2022/02/19 07:58:29;;;;;;;22.10;9.90;;;;;;;11.82;35.11;95283.81;4953990;28;20209;-68
2022/02/19 08:01:00;;;;;;;21.73;10.25;;;;;;;11.94;34.30;95281.75;4933552;29;20738;-67
2022/02/19 08:03:35;;;;;;;34.80;10.27;;;;;;;11.38;36.42;95282.41;4918109;29;20204;-66
2022/02/19 08:06:05;;;;;;;44.07;25.17;;;;;;;11.95;35.28;95273.63;4952276;28;20236;-69
2022/02/19 08:08:34;;;;;;;43.15;24.70;;;;;;;11.84;34.85;95277.25;4932914;29;20460;-67
2022/02/19 08:11:08;;;;;;;21.48;9.80;;;;;;;12.16;34.11;95277.97;4939298;28;20314;-67
2022/02/19 08:13:35;;;;;;;24.53;9.60;;;;;;;11.98;33.93;95290.72;4958696;28;20285;-68
2022/02/19 08:16:02;;;;;;;20.57;8.40;;;;;;;11.41;33.47;95287.13;4970127;28;20446;-68
2022/02/19 08:18:29;;;;;;;19.67;8.30;;;;;;;11.79;33.84;95284.28;4952011;28;20502;-66
2022/02/19 08:20:56;;;;;;;15.53;7.80;;;;;;;12.14;33.18;95271.38;4952294;28;20436;-67
2022/02/19 08:23:23;;;;;;;20.20;8.90;;;;;;;12.26;33.12;95295.63;4951880;28;20499;-71
2022/02/19 08:25:54;;;;;;;19.30;8.33;;;;;;;12.26;33.17;95287.72;4951717;28;20596;-71
2022/02/19 08:28:22;;;;;;;20.50;8.10;;;;;;;12.53;32.63;95279.69;4962076;28;20982;-71
2022/02/19 08:30:50;;;;;;;24.00;8.63;;;;;;;12.90;33.65;95262.69;4972584;28;20461;-68
2022/02/19 08:33:17;;;;;;;49.23;29.30;;;;;;;12.90;32.18;95286.38;4972964;28;20819;-67
2022/02/19 08:35:45;;;;;;;46.47;23.70;;;;;;;13.56;32.41;95273.28;4973070;28;20820;-72
2022/02/19 08:38:12;;;;;;;23.17;8.60;;;;;;;13.90;31.52;95258.53;4973057;28;20443;-72
2022/02/19 08:40:40;;;;;;;20.53;8.90;;;;;;;14.10;31.42;95253.19;4972731;28;20545;-67
2022/02/19 08:43:08;;;;;;;17.53;8.90;;;;;;;14.08;30.42;95261.38;4972919;28;20486;-67
2022/02/19 08:45:36;;;;;;;21.37;8.20;;;;;;;14.53;29.92;95257.81;4972621;28;20528;-71
2022/02/19 08:48:04;;;;;;;15.77;7.33;;;;;;;14.82;29.88;95244.72;4972699;28;20999;-68
2022/02/19 08:50:34;;;;;;;19.43;8.57;;;;;;;15.05;29.79;95250.13;4972326;28;20451;-68
2022/02/19 08:53:06;;;;;;;20.43;8.20;;;;;;;15.09;29.31;95245.88;4965657;28;20503;-68
2022/02/19 08:55:33;;;;;;;19.90;8.50;;;;;;;15.45;29.38;95248.28;4952662;28;20498;-67
2022/02/19 08:58:01;;;;;;;25.53;8.37;;;;;;;15.57;29.58;95246.06;4939822;28;20535;-68
2022/02/19 09:00:28;;;;;;;17.23;6.67;;;;;;;15.84;28.87;95256.91;4951829;28;20506;-69
2022/02/19 09:02:55;;;;;;;18.53;8.07;;;;;;;15.73;28.86;95256.22;4952909;28;20569;-68
2022/02/19 09:05:22;;;;;;;26.10;7.80;;;;;;;14.07;30.17;95264.25;4952346;28;20439;-67
2022/02/19 09:07:49;;;;;;;15.40;6.67;;;;;;;14.33;30.74;95257.88;4952369;28;20439;-69
2022/02/19 09:10:17;;;;;;;23.97;7.23;;;;;;;14.17;32.39;95269.50;4952326;28;20447;-67
2022/02/19 09:12:49;;;;;;;22.67;10.83;;;;;;;13.70;30.97;95263.81;4952682;28;20447;-70
2022/02/19 09:15:19;;;;;;;47.43;29.90;;;;;;;14.18;31.49;95265.81;4937355;28;20482;-71
2022/02/19 09:17:47;;;;;;;29.90;14.17;;;;;;;14.49;30.81;95277.09;4951781;28;21033;-69
2022/02/19 09:20:14;;;;;;;32.57;13.27;;;;;;;14.66;29.53;95262.50;4952739;28;20852;-68
2022/02/19 09:22:41;;;;;;;23.20;12.30;;;;;;;14.85;29.77;95260.78;4951949;28;20477;-68
2022/02/19 09:25:11;;;;;;;21.07;11.87;;;;;;;14.86;29.17;95254.47;4951672;28;20887;-68
2022/02/19 09:27:39;;;;;;;21.97;11.30;;;;;;;14.71;30.03;95266.94;4952214;28;20451;-68
2022/02/19 09:30:08;;;;;;;22.23;10.50;;;;;;;14.81;30.51;95249.22;4953145;28;20443;-70
2022/02/19 09:32:35;;;;;;;20.80;8.23;;;;;;;14.98;29.49;95257.56;4952314;28;20443;-67
2022/02/19 09:35:03;;;;;;;89.30;53.33;;;;;;;14.70;28.95;95260.09;4953680;28;20450;-66
2022/02/19 09:37:30;;;;;;;18.17;7.10;;;;;;;14.59;28.22;95267.28;4954255;28;20549;-71
2022/02/19 09:40:02;;;;;;;68.43;43.43;;;;;;;14.82;28.47;95260.56;4953069;28;20556;-69
2022/02/19 09:42:29;;;;;;;14.30;7.27;;;;;;;15.24;27.46;95248.41;4952597;28;20479;-70
2022/02/19 09:44:57;;;;;;;14.73;5.10;;;;;;;15.75;27.02;95269.94;4950384;28;20478;-71
2022/02/19 09:47:27;;;;;;;13.60;5.53;;;;;;;16.00;28.09;95255.72;4951091;28;20450;-69
2022/02/19 09:49:59;;;;;;;13.13;6.10;;;;;;;15.66;28.35;95260.25;4951205;28;20534;-68
2022/02/19 09:52:31;;;;;;;12.23;5.57;;;;;;;16.09;26.56;95286.53;4953156;28;21102;-68
2022/02/19 09:54:59;;;;;;;17.57;5.87;;;;;;;16.30;26.14;95276.53;4952503;28;20442;-68
2022/02/19 09:57:27;;;;;;;18.57;6.43;;;;;;;16.47;26.45;95279.56;4952582;29;20427;-69
2022/02/19 09:59:54;;;;;;;10.83;4.67;;;;;;;16.93;26.87;95274.47;4952814;29;20440;-69
2022/02/19 10:02:32;;;;;;;11.23;4.50;;;;;;;17.08;25.12;95269.75;4964750;28;20778;-69
2022/02/19 10:05:18;;;;;;;12.63;5.03;;;;;;;17.15;25.33;95267.53;4971067;28;20449;-71
2022/02/19 10:08:02;;;;;;;16.50;5.40;;;;;;;17.42;25.56;95266.06;4971744;28;20450;-70
2022/02/19 10:10:31;;;;;;;15.27;5.83;;;;;;;17.82;25.00;95257.50;4969413;28;20442;-70
2022/02/19 10:12:58;;;;;;;13.60;5.67;;;;;;;18.14;24.96;95249.50;4955327;28;20466;-70
2022/02/19 10:15:48;;;;;;;9.77;5.30;;;;;;;18.23;24.32;95250.38;4972092;28;20442;-68
2022/02/19 10:18:28;;;;;;;15.20;5.30;;;;;;;17.14;25.63;95252.72;4972300;28;20594;-71
2022/02/19 10:21:22;;;;;;;13.10;4.57;;;;;;;17.34;25.69;95245.53;4971756;28;21051;-71
2022/02/19 10:23:51;;;;;;;10.67;4.53;;;;;;;17.62;25.43;95249.88;4971612;28;20438;-69
2022/02/19 10:26:24;;;;;;;10.50;4.83;;;;;;;17.34;25.38;95235.72;4971780;28;20443;-68
2022/02/19 10:29:05;;;;;;;11.77;5.37;;;;;;;17.76;25.43;95240.09;4971806;28;20450;-69
2022/02/19 10:31:34;;;;;;;21.37;5.47;;;;;;;17.86;24.91;95237.28;4971033;28;20478;-69
2022/02/19 10:34:09;;;;;;;12.20;5.13;;;;;;;17.84;23.67;95232.28;4970333;28;20466;-71
2022/02/19 10:36:46;;;;;;;11.00;5.00;;;;;;;17.79;25.63;95234.25;4971462;28;20451;-71
2022/02/19 10:39:13;;;;;;;14.73;5.70;;;;;;;17.70;24.47;95228.78;4971687;28;20446;-70
2022/02/19 10:41:41;;;;;;;12.97;5.57;;;;;;;17.96;25.26;95226.50;4953859;28;20478;-70
2022/02/19 10:44:26;;;;;;;16.87;6.73;;;;;;;18.01;25.03;95218.47;4971040;28;21028;-72
2022/02/19 10:47:18;;;;;;;12.10;5.60;;;;;;;18.43;23.87;95210.22;4965180;28;20460;-69
2022/02/19 10:50:03;;;;;;;12.93;6.70;;;;;;;18.02;24.12;95201.47;4953380;28;20962;-68
2022/02/19 10:52:37;;;;;;;17.73;6.83;;;;;;;17.69;24.58;95171.59;4952417;28;20439;-69
2022/02/19 10:55:08;;;;;;;11.13;5.50;;;;;;;17.59;24.76;95197.47;4952972;28;20454;-68
2022/02/19 10:57:37;;;;;;;13.70;6.23;;;;;;;18.04;23.78;95188.69;4953412;29;20440;-69
2022/02/19 11:00:15;;;;;;;14.40;6.50;;;;;;;18.32;24.89;95176.97;4952317;29;20428;-68
2022/02/19 11:02:44;;;;;;;15.83;6.87;;;;;;;18.71;24.44;95171.94;4956444;28;20492;-72
2022/02/19 11:05:19;;;;;;;13.00;5.97;;;;;;;18.75;24.21;95178.22;4971889;28;20449;-70
2022/02/19 11:07:47;;;;;;;17.80;6.87;;;;;;;18.34;24.67;95171.41;4972511;28;20441;-69
2022/02/19 11:10:19;;;;;;;13.03;6.73;;;;;;;18.15;24.26;95152.94;4971909;28;20447;-68
2022/02/19 11:12:47;;;;;;;18.37;5.77;;;;;;;17.84;24.32;95141.34;4952811;28;20514;-70
2022/02/19 11:15:22;;;;;;;11.50;5.93;;;;;;;18.16;24.85;95159.81;4951276;28;20487;-71
2022/02/19 11:17:50;;;;;;;12.73;6.00;;;;;;;18.29;24.74;95158.22;4952058;29;20455;-70
2022/02/19 11:20:18;;;;;;;15.63;5.73;;;;;;;18.72;24.21;95152.25;4952007;29;20443;-71
2022/02/19 11:22:45;;;;;;;11.83;5.60;;;;;;;18.20;23.93;95134.28;4956278;28;20479;-70
2022/02/19 11:25:17;;;;;;;10.33;3.63;;;;;;;18.95;23.91;95137.94;4938044;29;20451;-71
2022/02/19 11:28:05;;;;;;;13.93;4.87;;;;;;;18.63;23.00;95138.13;4961130;28;20443;-69
2022/02/19 11:30:41;;;;;;;9.30;4.17;;;;;;;18.87;23.39;95138.66;4974659;28;20458;-69
2022/02/19 11:33:10;;;;;;;10.10;4.70;;;;;;;18.65;22.96;95135.19;4975891;28;21031;-70
2022/02/19 11:35:40;;;;;;;9.50;4.10;;;;;;;18.81;23.91;95128.47;4975024;28;21012;-70
2022/02/19 11:38:37;;;;;;;8.93;3.97;;;;;;;19.06;23.16;95131.31;4974645;28;20979;-70
2022/02/19 11:41:16;;;;;;;10.47;4.10;;;;;;;18.92;23.06;95113.88;4974234;28;20489;-70
2022/02/19 11:43:45;;;;;;;7.20;4.23;;;;;;;18.78;22.91;95121.88;4973227;28;20481;-68
2022/02/19 11:46:15;;;;;;;6.73;4.57;;;;;;;18.98;23.02;95112.63;4974150;28;21004;-71
2022/02/19 11:48:47;;;;;;;10.67;4.07;;;;;;;19.36;22.75;95100.56;4973741;28;20446;-70
2022/02/19 11:51:23;;;;;;;13.63;4.10;;;;;;;19.74;22.50;95103.56;4975627;28;20442;-69